Time;durP1;ratioP1;P1;durP2;ratioP2;P2;SDS_P1;SDS_P2;PMS_P1;PMS_P2;Temp;Humidity;BMP_temperature;BMP_pressure;BME280_temperature;BME280_humidity;BME280_pressure;Samples;Min_cycle;Max_cycle;Signal;HPM_P1;HPM_P2
2023/09/19 00:00:43;;;;;;;1.45;0.65;;;12.20;99.90;;;;;;5155653;27;20043;-63
2023/09/19 00:03:11;;;;;;;0.65;0.30;;;12.00;99.90;;;;;;5155140;27;20038;-63
2023/09/19 00:05:38;;;;;;;0.10;0.10;;;12.30;99.90;;;;;;5154768;27;20050;-64
2023/09/19 00:08:04;;;;;;;0.20;0.20;;;12.30;99.90;;;;;;5155098;27;20133;-62
2023/09/19 00:10:31;;;;;;;0.20;0.20;;;13.10;99.90;;;;;;5155134;27;20546;-63
2023/09/19 00:13:05;;;;;;;0.15;0.15;;;13.30;99.90;;;;;;5154752;27;20498;-64
2023/09/19 00:15:35;;;;;;;0.10;0.10;;;13.40;99.90;;;;;;5155429;27;20051;-63
2023/09/19 00:18:01;;;;;;;0.20;0.20;;;13.40;99.90;;;;;;5155082;27;20050;-64
2023/09/19 00:20:29;;;;;;;0.38;0.38;;;12.20;99.90;;;;;;5155184;27;20051;-64
2023/09/19 00:22:55;;;;;;;0.25;0.25;;;12.50;99.90;;;;;;5155079;27;20039;-62
2023/09/19 00:25:21;;;;;;;1.15;0.55;;;12.70;99.90;;;;;;5155191;27;20049;-63
2023/09/19 00:27:49;;;;;;;0.20;0.20;;;13.20;99.90;;;;;;5155047;27;20046;-64
2023/09/19 00:30:19;;;;;;;0.10;0.10;;;12.90;99.90;;;;;;5155071;27;20042;-63
2023/09/19 00:32:47;;;;;;;0.20;0.20;;;13.30;99.90;;;;;;5136725;27;20101;-62
2023/09/19 00:35:15;;;;;;;0.38;0.35;;;13.00;99.90;;;;;;5154943;27;20129;-63
2023/09/19 00:37:42;;;;;;;0.20;0.20;;;11.80;99.90;;;;;;5154895;27;20414;-63
2023/09/19 00:40:12;;;;;;;0.80;0.40;;;13.00;99.90;;;;;;5154898;27;20050;-62
2023/09/19 00:42:41;;;;;;;0.40;0.40;;;12.00;99.90;;;;;;5154721;27;20043;-62
2023/09/19 00:45:11;;;;;;;0.22;0.22;;;12.30;99.90;;;;;;5154744;27;20053;-63
2023/09/19 00:47:48;;;;;;;0.10;0.10;;;13.20;99.90;;;;;;5154754;27;20053;-62
2023/09/19 00:50:17;;;;;;;0.20;0.20;;;11.80;99.90;;;;;;5154741;27;20063;-62
2023/09/19 00:52:44;;;;;;;0.20;0.20;;;12.30;99.90;;;;;;5154651;27;20417;-62
2023/09/19 00:55:11;;;;;;;0.20;0.20;;;11.70;99.90;;;;;;5154569;27;20093;-62
2023/09/19 00:57:38;;;;;;;29.48;1.35;;;11.90;99.90;;;;;;5154438;27;20058;-62
2023/09/19 01:00:07;;;;;;;1.15;1.13;;;12.30;99.90;;;;;;5154463;27;20465;-63
2023/09/19 01:02:34;;;;;;;0.85;0.73;;;12.10;99.90;;;;;;5154331;27;20047;-62
2023/09/19 01:05:00;;;;;;;0.30;0.30;;;12.70;99.90;;;;;;5154392;27;20053;-61
2023/09/19 01:07:31;;;;;;;2.45;0.93;;;12.80;99.90;;;;;;5154412;27;20066;-62
2023/09/19 01:10:00;;;;;;;1.23;1.20;;;12.20;99.90;;;;;;5154195;27;20051;-63
2023/09/19 01:13:01;;;;;;;0.20;0.20;;;12.20;99.90;;;;;;5154223;27;20046;-62
2023/09/19 01:15:39;;;;;;;0.30;0.30;;;12.90;99.90;;;;;;5112313;27;20062;-62
2023/09/19 01:18:30;;;;;;;0.73;0.73;;;13.10;99.90;;;;;;5154135;27;20051;-63
2023/09/19 01:21:06;;;;;;;0.10;0.10;;;13.30;99.90;;;;;;5154090;27;20055;-63
2023/09/19 01:23:37;;;;;;;0.20;0.20;;;12.40;99.90;;;;;;5153696;27;20802;-62
2023/09/19 01:26:09;;;;;;;0.43;0.43;;;12.00;99.90;;;;;;5154035;27;20047;-62
2023/09/19 01:29:19;;;;;;;4.13;1.20;;;12.50;99.90;;;;;;5153421;27;20142;-62
2023/09/19 01:31:47;;;;;;;0.63;0.63;;;12.20;99.90;;;;;;5049370;28;20581;-61
2023/09/19 01:34:12;;;;;;;0.20;0.20;;;12.10;99.90;;;;;;5049377;28;20053;-62
2023/09/19 01:36:38;;;;;;;0.60;0.40;;;11.90;99.90;;;;;;5103155;27;20065;-62
2023/09/19 01:39:08;;;;;;;1.08;0.20;;;11.80;99.90;;;;;;5153811;27;20054;-62
2023/09/19 01:41:49;;;;;;;0.38;0.38;;;12.90;99.90;;;;;;5153864;27;20034;-62
2023/09/19 01:44:25;;;;;;;0.30;0.30;;;12.00;99.90;;;;;;5153763;27;20056;-62
2023/09/19 01:46:56;;;;;;;0.80;0.80;;;12.50;99.90;;;;;;5153932;27;20050;-62
2023/09/19 01:49:33;;;;;;;0.15;0.15;;;12.40;99.90;;;;;;5154086;27;20043;-62
2023/09/19 01:52:19;;;;;;;1.65;0.38;;;11.60;99.90;;;;;;5153932;27;20042;-63
2023/09/19 01:54:55;;;;;;;0.55;0.55;;;11.60;99.90;;;;;;5153798;27;20039;-62
2023/09/19 01:57:35;;;;;;;0.32;0.32;;;11.60;99.90;;;;;;5153768;27;20057;-62
2023/09/19 02:00:06;;;;;;;0.20;0.20;;;12.50;99.90;;;;;;5153848;27;20042;-63
2023/09/19 02:02:42;;;;;;;0.47;0.32;;;12.10;99.90;;;;;;5153479;27;20126;-62
2023/09/19 02:05:08;;;;;;;0.20;0.20;;;11.70;99.90;;;;;;5153477;27;20058;-64
2023/09/19 02:07:35;;;;;;;0.43;0.30;;;11.60;99.90;;;;;;5153509;27;20070;-63
2023/09/19 02:10:03;;;;;;;2.28;2.08;;;12.10;99.90;;;;;;5153548;27;20051;-63
2023/09/19 02:12:30;;;;;;;0.38;0.38;;;11.60;99.90;;;;;;5153623;27;20107;-63
2023/09/19 02:14:57;;;;;;;0.65;0.65;;;11.80;99.90;;;;;;5153893;27;20428;-62
2023/09/19 02:17:25;;;;;;;1.48;0.95;;;12.20;99.90;;;;;;5153382;27;20050;-63
2023/09/19 02:19:55;;;;;;;6.45;0.50;;;11.70;99.90;;;;;;5153346;27;20091;-62
2023/09/19 02:22:22;;;;;;;0.20;0.20;;;11.50;99.90;;;;;;5153272;27;20049;-63
2023/09/19 02:24:48;;;;;;;0.30;0.30;;;11.40;99.90;;;;;;5153184;27;20062;-62
2023/09/19 02:27:15;;;;;;;0.52;0.38;;;12.30;99.90;;;;;;5153202;27;20051;-64
2023/09/19 02:29:42;;;;;;;0.20;0.20;;;12.20;99.90;;;;;;5153162;27;20050;-63
2023/09/19 02:32:09;;;;;;;;;;;12.00;99.90;;;;;;5153569;27;20058;-62
2023/09/19 02:34:36;;;;;;;0.35;0.35;;;11.70;99.90;;;;;;5153050;27;19923;-63
2023/09/19 02:37:08;;;;;;;0.52;0.52;;;11.70;99.90;;;;;;5153101;27;20096;-62
2023/09/19 02:39:34;;;;;;;0.20;0.20;;;12.00;99.90;;;;;;5153763;27;20047;-63
2023/09/19 02:42:00;;;;;;;2.25;1.92;;;11.90;99.90;;;;;;5157178;27;20581;-64
2023/09/19 02:44:26;;;;;;;0.17;0.17;;;12.30;99.90;;;;;;5157041;27;20118;-62
2023/09/19 02:46:52;;;;;;;4.05;0.50;;;11.20;99.90;;;;;;5138714;27;20130;-63
2023/09/19 02:49:18;;;;;;;0.30;0.30;;;11.20;99.90;;;;;;5157110;27;20133;-63
2023/09/19 02:51:45;;;;;;;0.32;0.32;;;11.30;99.90;;;;;;5156992;27;20463;-63
2023/09/19 02:54:11;;;;;;;1.10;1.10;;;11.40;99.90;;;;;;5156911;27;20047;-62
2023/09/19 02:56:37;;;;;;;0.20;0.20;;;11.50;99.90;;;;;;5156859;27;20119;-62
2023/09/19 02:59:03;;;;;;;0.20;0.20;;;11.70;99.90;;;;;;5156833;27;20050;-63
2023/09/19 03:01:29;;;;;;;0.47;0.47;;;12.30;99.90;;;;;;5138438;27;20129;-62
2023/09/19 03:03:55;;;;;;;2.35;1.85;;;11.90;99.90;;;;;;5156715;27;20230;-62
2023/09/19 03:06:21;;;;;;;0.20;0.20;;;12.20;99.90;;;;;;5156694;27;20093;-62
2023/09/19 03:08:49;;;;;;;0.40;0.40;;;12.20;99.90;;;;;;5156643;27;20078;-62
2023/09/19 03:11:16;;;;;;;0.38;0.38;;;12.80;99.90;;;;;;5156712;27;20091;-62
2023/09/19 03:13:42;;;;;;;0.52;0.52;;;12.60;99.90;;;;;;5156638;27;20069;-63
2023/09/19 03:16:08;;;;;;;0.20;0.20;;;11.90;99.90;;;;;;5156515;27;20050;-62
2023/09/19 03:18:34;;;;;;;;;;;11.90;99.90;;;;;;5157031;27;20155;-62
2023/09/19 03:21:00;;;;;;;0.40;0.40;;;12.60;99.90;;;;;;5156463;27;20443;-62
2023/09/19 03:23:27;;;;;;;;;;;12.10;99.90;;;;;;5156755;27;20042;-63
2023/09/19 03:25:54;;;;;;;0.20;0.20;;;11.90;99.90;;;;;;5156358;27;19923;-62
2023/09/19 03:28:21;;;;;;;0.30;0.30;;;12.40;99.90;;;;;;5156553;27;20513;-62
2023/09/19 03:31:00;;;;;;;0.20;0.20;;;12.50;99.90;;;;;;5156231;27;20090;-62
2023/09/19 03:33:26;;;;;;;1.92;0.98;;;12.60;99.90;;;;;;5156284;27;20042;-62
2023/09/19 03:35:53;;;;;;;0.60;0.55;;;12.30;99.90;;;;;;5156177;27;20050;-62
2023/09/19 03:38:19;;;;;;;0.20;0.20;;;12.30;99.90;;;;;;5156008;27;20051;-63
2023/09/19 03:40:45;;;;;;;;;;;12.70;99.90;;;;;;5156464;27;20054;-62
2023/09/19 03:43:10;;;;;;;0.40;0.40;;;11.80;99.90;;;;;;5155901;27;19919;-62
2023/09/19 03:45:36;;;;;;;0.13;0.13;;;12.00;99.90;;;;;;5155940;27;20043;-62
2023/09/19 03:48:10;;;;;;;0.30;0.30;;;11.30;99.90;;;;;;5137723;27;20138;-63
2023/09/19 03:50:36;;;;;;;0.57;0.40;;;12.00;99.90;;;;;;5155886;27;20043;-62
2023/09/19 03:53:03;;;;;;;0.20;0.20;;;11.80;99.90;;;;;;5155565;27;20122;-62
2023/09/19 03:55:32;;;;;;;0.70;0.43;;;11.80;99.90;;;;;;5155926;27;20718;-62
2023/09/19 03:57:57;;;;;;;14.43;1.35;;;11.90;99.90;;;;;;5155744;27;20050;-62
2023/09/19 04:00:26;;;;;;;1.92;0.90;;;12.00;99.90;;;;;;5155666;27;20126;-62
2023/09/19 04:02:52;;;;;;;5.38;0.95;;;11.60;99.90;;;;;;5155573;27;20047;-62
2023/09/19 04:05:18;;;;;;;0.10;0.10;;;11.70;99.90;;;;;;5155587;27;20452;-63
2023/09/19 04:07:44;;;;;;;0.20;0.20;;;12.00;99.90;;;;;;5155680;27;20134;-62
2023/09/19 04:10:11;;;;;;;0.38;0.38;;;11.60;99.90;;;;;;5155514;27;20141;-62
2023/09/19 04:12:37;;;;;;;0.20;0.20;;;11.50;99.90;;;;;;5155440;27;20080;-62
2023/09/19 04:15:04;;;;;;;0.30;0.30;;;11.40;99.90;;;;;;5155417;27;20062;-62
2023/09/19 04:17:32;;;;;;;0.25;0.25;;;11.60;99.90;;;;;;5155283;27;20050;-62
2023/09/19 04:19:58;;;;;;;0.20;0.20;;;11.90;99.90;;;;;;5155259;27;20055;-62
2023/09/19 04:22:24;;;;;;;0.35;0.35;;;11.80;99.90;;;;;;5155547;27;20183;-63
2023/09/19 04:24:50;;;;;;;0.20;0.20;;;11.70;99.90;;;;;;5155066;27;20042;-63
2023/09/19 04:27:15;;;;;;;0.63;0.50;;;11.40;99.90;;;;;;5154933;27;20043;-63
2023/09/19 04:29:41;;;;;;;0.10;0.10;;;11.50;99.90;;;;;;5155084;27;20152;-62
2023/09/19 04:32:07;;;;;;;0.38;0.38;;;12.10;99.90;;;;;;5155036;27;20050;-62
2023/09/19 04:34:38;;;;;;;0.20;0.20;;;12.10;99.90;;;;;;5155112;27;20050;-62
2023/09/19 04:37:04;;;;;;;0.17;0.17;;;12.20;99.90;;;;;;5155063;27;20051;-63
2023/09/19 04:39:29;;;;;;;;;;;12.10;99.90;;;;;;5155328;27;20089;-63
2023/09/19 04:41:55;;;;;;;0.20;0.20;;;12.10;99.90;;;;;;5155135;27;19966;-62
2023/09/19 04:44:21;;;;;;;0.10;0.10;;;12.20;99.90;;;;;;5154734;27;20042;-62
2023/09/19 04:46:47;;;;;;;0.10;0.10;;;11.70;99.90;;;;;;5155074;27;20051;-63
2023/09/19 04:49:13;;;;;;;0.10;0.10;;;11.80;99.90;;;;;;5154745;27;20047;-63
2023/09/19 04:51:40;;;;;;;;;;;11.90;99.90;;;;;;5155164;27;20108;-62
2023/09/19 04:54:06;;;;;;;0.95;0.95;;;11.70;99.90;;;;;;5154667;27;19971;-62
2023/09/19 04:56:32;;;;;;;0.10;0.10;;;12.20;99.90;;;;;;5154259;27;20551;-62
2023/09/19 04:58:58;;;;;;;0.28;0.28;;;12.20;99.90;;;;;;5154489;27;20051;-63
2023/09/19 05:01:27;;;;;;;0.50;0.38;;;12.40;99.90;;;;;;5154254;27;20553;-62
2023/09/19 05:03:53;;;;;;;0.20;0.20;;;12.20;99.90;;;;;;5153436;27;20043;-63
2023/09/19 05:06:22;;;;;;;0.88;0.52;;;12.00;99.90;;;;;;5135715;27;20083;-62
2023/09/19 05:08:52;;;;;;;1.23;0.90;;;12.00;99.90;;;;;;5154464;27;20103;-63
2023/09/19 05:11:22;;;;;;;0.30;0.30;;;12.30;99.90;;;;;;5154544;27;20803;-62
2023/09/19 05:13:52;;;;;;;0.40;0.40;;;12.20;99.90;;;;;;5154642;27;20046;-63
2023/09/19 05:16:18;;;;;;;0.10;0.10;;;12.60;99.90;;;;;;5154353;27;20078;-62
2023/09/19 05:18:44;;;;;;;0.40;0.40;;;12.50;99.90;;;;;;5154213;27;20078;-62
2023/09/19 05:21:10;;;;;;;0.20;0.20;;;12.50;99.90;;;;;;5154173;27;20047;-63
2023/09/19 05:23:36;;;;;;;0.10;0.10;;;12.80;99.90;;;;;;5153975;27;20106;-62
2023/09/19 05:26:03;;;;;;;0.50;0.50;;;12.50;99.90;;;;;;5153966;27;20049;-62
2023/09/19 05:28:29;;;;;;;0.10;0.10;;;12.80;99.90;;;;;;5154209;27;20053;-63
2023/09/19 05:30:55;;;;;;;1.88;0.30;;;12.50;99.90;;;;;;5153971;27;20046;-62
2023/09/19 05:33:21;;;;;;;0.20;0.20;;;12.80;99.90;;;;;;5153879;27;20045;-63
2023/09/19 05:35:48;;;;;;;0.30;0.30;;;13.00;99.90;;;;;;5153837;27;20051;-62
2023/09/19 05:38:15;;;;;;;0.20;0.20;;;13.10;99.90;;;;;;5154079;27;20046;-62
2023/09/19 05:40:42;;;;;;;4.57;2.75;;;12.90;99.90;;;;;;5153769;27;20047;-62
2023/09/19 05:43:08;;;;;;;0.30;0.30;;;12.70;99.90;;;;;;5153795;27;20178;-62
2023/09/19 05:45:35;;;;;;;0.10;0.10;;;12.90;99.90;;;;;;5145577;27;20983;-66
2023/09/19 05:48:13;;;;;;;0.20;0.20;;;12.90;99.90;;;;;;5143562;27;20046;-63
2023/09/19 05:50:39;;;;;;;0.20;0.20;;;12.80;99.90;;;;;;5139326;27;20081;-62
2023/09/19 05:53:05;;;;;;;0.85;0.85;;;13.10;99.90;;;;;;5151132;27;20034;-62
2023/09/19 05:55:32;;;;;;;0.20;0.20;;;12.80;99.90;;;;;;5151802;27;20112;-63
2023/09/19 05:57:58;;;;;;;0.20;0.20;;;13.00;99.90;;;;;;5151668;27;20052;-62
2023/09/19 06:00:27;;;;;;;0.43;0.43;;;13.00;99.90;;;;;;5152801;27;20046;-62
2023/09/19 06:02:57;;;;;;;6.93;0.85;;;13.20;99.90;;;;;;5152928;27;20493;-62
2023/09/19 06:05:24;;;;;;;2.67;0.85;;;13.40;99.90;;;;;;5152456;27;20393;-62
2023/09/19 06:07:51;;;;;;;0.20;0.20;;;13.40;99.90;;;;;;5153249;27;20093;-62
2023/09/19 06:10:17;;;;;;;0.40;0.35;;;13.10;99.90;;;;;;5153054;27;20502;-63
2023/09/19 06:12:44;;;;;;;7.47;1.17;;;13.50;99.90;;;;;;5152598;27;20133;-61
2023/09/19 06:15:15;;;;;;;0.30;0.30;;;13.30;99.90;;;;;;5152504;27;20458;-62
2023/09/19 06:17:51;;;;;;;0.40;0.30;;;13.70;99.90;;;;;;5153183;27;20413;-62
2023/09/19 06:20:17;;;;;;;8.25;1.02;;;13.60;99.90;;;;;;5152492;27;20049;-62
2023/09/19 06:22:43;;;;;;;;;;;13.60;99.90;;;;;;5153367;27;20054;-62
2023/09/19 06:25:19;;;;;;;0.10;0.10;;;13.70;99.90;;;;;;5152978;27;19987;-62
2023/09/19 06:27:52;;;;;;;2.72;0.40;;;13.70;99.90;;;;;;5152758;27;20082;-62
2023/09/19 06:30:18;;;;;;;0.80;0.80;;;14.00;99.90;;;;;;5150704;27;20123;-62
2023/09/19 06:32:44;;;;;;;;;;;13.70;99.90;;;;;;5143057;27;20038;-66
2023/09/19 06:35:11;;;;;;;1.55;0.28;;;13.60;99.90;;;;;;5134582;27;19919;-62
2023/09/19 06:37:40;;;;;;;1.20;1.10;;;13.50;99.90;;;;;;5152942;27;20054;-62
2023/09/19 06:40:08;;;;;;;1.17;0.30;;;13.70;99.90;;;;;;5152417;27;20138;-63
2023/09/19 06:42:37;;;;;;;0.30;0.30;;;13.70;99.90;;;;;;5153005;27;20055;-62
2023/09/19 06:45:05;;;;;;;0.28;0.28;;;13.90;99.90;;;;;;5152838;27;20054;-62
2023/09/19 06:47:31;;;;;;;0.25;0.25;;;13.90;99.90;;;;;;5152044;27;20058;-63
2023/09/19 06:49:56;;;;;;;0.20;0.20;;;13.90;99.90;;;;;;5152967;27;20127;-62
2023/09/19 06:52:22;;;;;;;1.35;0.68;;;14.10;99.90;;;;;;5152805;27;20057;-62
2023/09/19 06:54:50;;;;;;;1.88;0.55;;;14.10;99.90;;;;;;5152360;27;20126;-62
2023/09/19 06:57:16;;;;;;;0.80;0.68;;;13.90;99.90;;;;;;5152658;27;20042;-62
2023/09/19 06:59:42;;;;;;;;;;;13.60;99.90;;;;;;5153222;27;20376;-62
2023/09/19 07:02:08;;;;;;;0.10;0.10;;;14.10;99.90;;;;;;5152195;27;19975;-62
2023/09/19 07:04:34;;;;;;;0.10;0.10;;;14.30;99.90;;;;;;5152340;27;20061;-63
2023/09/19 07:06:59;;;;;;;0.20;0.20;;;14.40;99.90;;;;;;5152144;27;20058;-63
2023/09/19 07:09:27;;;;;;;0.20;0.20;;;14.40;99.90;;;;;;5152411;27;20089;-66
2023/09/19 07:11:53;;;;;;;0.47;0.47;;;14.40;99.90;;;;;;5152339;27;20047;-63
2023/09/19 07:14:19;;;;;;;;;;;14.30;99.90;;;;;;5153050;27;20042;-63
2023/09/19 07:16:44;;;;;;;0.30;0.30;;;14.50;99.90;;;;;;5152490;27;19923;-63
2023/09/19 07:19:10;;;;;;;;;;;14.50;99.90;;;;;;5152209;27;20050;-63
2023/09/19 07:21:38;;;;;;;0.28;0.28;;;14.60;99.90;;;;;;5141933;27;19927;-62
2023/09/19 07:24:04;;;;;;;0.13;0.13;;;14.50;99.90;;;;;;5149337;27;20043;-64
2023/09/19 07:26:31;;;;;;;;;;;14.60;99.90;;;;;;5137818;27;20039;-61
2023/09/19 07:28:57;;;;;;;0.60;0.47;;;14.30;99.90;;;;;;5152856;27;19942;-63
2023/09/19 07:31:25;;;;;;;0.45;0.45;;;14.50;99.90;;;;;;5155318;27;20276;-61
2023/09/19 07:33:51;;;;;;;0.25;0.25;;;14.60;99.90;;;;;;5155772;27;20095;-62
2023/09/19 07:36:17;;;;;;;0.25;0.25;;;14.80;99.90;;;;;;5156280;27;20114;-62
2023/09/19 07:38:43;;;;;;;2.42;1.35;;;15.00;99.90;;;;;;5155799;27;20470;-63
2023/09/19 07:41:09;;;;;;;3.55;0.88;;;14.90;99.90;;;;;;5155892;27;20043;-62
2023/09/19 07:43:40;;;;;;;0.30;0.30;;;14.90;99.90;;;;;;5155429;27;20076;-63
2023/09/19 07:46:09;;;;;;;0.13;0.13;;;15.10;99.90;;;;;;5155818;27;20054;-63
2023/09/19 07:48:38;;;;;;;0.75;0.20;;;15.20;99.90;;;;;;5155559;27;20057;-63
2023/09/19 07:51:08;;;;;;;1.13;0.63;;;15.20;99.90;;;;;;5155660;27;20434;-64
2023/09/19 07:53:37;;;;;;;0.40;0.40;;;14.90;99.90;;;;;;5155419;27;20049;-62
2023/09/19 07:56:07;;;;;;;0.43;0.20;;;15.10;99.90;;;;;;5155282;27;20493;-62
2023/09/19 07:58:33;;;;;;;0.10;0.10;;;15.30;99.90;;;;;;5155344;27;20055;-63
2023/09/19 08:01:06;;;;;;;0.43;0.43;;;15.40;99.90;;;;;;5155470;27;20402;-61
2023/09/19 08:03:40;;;;;;;0.50;0.50;;;15.40;99.90;;;;;;5155196;27;20085;-63
2023/09/19 08:06:06;;;;;;;0.32;0.32;;;15.50;99.90;;;;;;5155292;27;20394;-61
2023/09/19 08:08:36;;;;;;;0.57;0.57;;;15.40;99.90;;;;;;5155125;27;20171;-63
2023/09/19 08:11:04;;;;;;;0.20;0.20;;;15.40;99.90;;;;;;5153415;27;20085;-62
2023/09/19 08:13:30;;;;;;;0.28;0.28;;;15.70;99.90;;;;;;5152265;27;20043;-63
2023/09/19 08:15:56;;;;;;;0.20;0.20;;;16.30;99.90;;;;;;5153552;27;20058;-62
2023/09/19 08:18:22;;;;;;;0.25;0.25;;;16.00;99.90;;;;;;5151605;27;20047;-63
2023/09/19 08:20:52;;;;;;;;;;;16.10;99.90;;;;;;5155400;27;20035;-63
2023/09/19 08:23:19;;;;;;;0.25;0.20;;;16.40;99.90;;;;;;5155083;27;19977;-63
2023/09/19 08:25:46;;;;;;;0.32;0.32;;;16.30;99.90;;;;;;5155386;27;20050;-63
2023/09/19 08:28:14;;;;;;;0.10;0.10;;;16.40;99.90;;;;;;5155111;27;20046;-62
2023/09/19 08:30:40;;;;;;;0.75;0.50;;;16.50;99.90;;;;;;5154902;27;20061;-64
2023/09/19 08:33:07;;;;;;;0.35;0.35;;;16.70;99.90;;;;;;5154953;27;20042;-61
2023/09/19 08:35:33;;;;;;;0.45;0.45;;;16.70;99.90;;;;;;5154958;27;20490;-63
2023/09/19 08:38:03;;;;;;;;;;;16.70;99.90;;;;;;5155441;27;20047;-62
2023/09/19 08:40:33;;;;;;;0.30;0.30;;;16.80;99.90;;;;;;5155228;27;19923;-62
2023/09/19 08:42:59;;;;;;;0.10;0.10;;;16.60;99.90;;;;;;5154957;27;20082;-62
2023/09/19 08:45:28;;;;;;;3.53;0.40;;;16.90;99.90;;;;;;5154794;27;20470;-62
2023/09/19 08:47:53;;;;;;;0.13;0.13;;;17.00;99.90;;;;;;5154775;27;20074;-61
2023/09/19 08:50:23;;;;;;;;;;;17.00;99.90;;;;;;5155118;27;20452;-62
2023/09/19 08:52:54;;;;;;;1.25;1.10;;;17.10;99.90;;;;;;5154254;27;19923;-61
2023/09/19 08:55:27;;;;;;;5.28;0.38;;;17.50;99.90;;;;;;5154406;27;20126;-63
2023/09/19 08:58:00;;;;;;;0.15;0.15;;;17.30;99.90;;;;;;5154544;27;20543;-64
2023/09/19 09:00:27;;;;;;;0.55;0.55;;;17.00;99.90;;;;;;5154665;27;20510;-63
2023/09/19 09:02:56;;;;;;;0.10;0.10;;;16.90;99.90;;;;;;5154304;27;20051;-64
2023/09/19 09:05:23;;;;;;;0.17;0.17;;;16.90;99.90;;;;;;5153915;27;20498;-64
2023/09/19 09:07:54;;;;;;;0.22;0.22;;;17.00;99.90;;;;;;5154203;27;20054;-63
2023/09/19 09:10:22;;;;;;;0.10;0.10;;;17.10;99.90;;;;;;5154183;27;20462;-62
2023/09/19 09:12:55;;;;;;;0.20;0.20;;;16.80;99.90;;;;;;5154154;27;20090;-64
2023/09/19 09:15:23;;;;;;;0.30;0.20;;;17.30;99.90;;;;;;5154188;27;20042;-62
2023/09/19 09:17:52;;;;;;;0.50;0.17;;;17.10;99.90;;;;;;5128025;27;20048;-63
2023/09/19 09:20:19;;;;;;;1.95;0.93;;;17.40;99.90;;;;;;5153299;27;20045;-62
2023/09/19 09:22:55;;;;;;;0.13;0.13;;;17.30;99.90;;;;;;5153854;27;20050;-62
2023/09/19 09:25:24;;;;;;;;;;;17.20;99.90;;;;;;5154163;27;20042;-62
2023/09/19 09:28:03;;;;;;;0.60;0.60;;;17.30;99.90;;;;;;5153446;27;20444;-62
2023/09/19 09:30:37;;;;;;;0.77;0.77;;;17.00;99.90;;;;;;5153338;27;20061;-62
2023/09/19 09:33:11;;;;;;;1.98;1.52;;;17.40;99.90;;;;;;5153276;27;20142;-63
2023/09/19 09:35:47;;;;;;;0.80;0.80;;;17.60;99.90;;;;;;5153219;27;20482;-62
2023/09/19 09:38:13;;;;;;;0.10;0.10;;;17.30;99.90;;;;;;5153935;27;20458;-62
2023/09/19 09:40:53;;;;;;;0.40;0.40;;;15.70;99.90;;;;;;5153376;27;20486;-62
2023/09/19 09:43:36;;;;;;;0.30;0.30;;;17.40;99.90;;;;;;5153627;27;20146;-63
2023/09/19 09:49:39;;;;;;;;;;;17.60;99.90;;;;;;5143759;27;20066;-63
2023/09/19 09:51:59;;;;;;;0.03;0.03;;;17.50;99.90;;;;;;5141728;27;20449;-64
2023/09/19 09:54:41;;;;;;;0.73;0.43;;;17.50;99.90;;;;;;5151943;27;20102;-63
2023/09/19 09:57:13;;;;;;;0.43;0.30;;;17.60;99.90;;;;;;5153177;27;20039;-62
2023/09/19 10:00:15;;;;;;;0.00;0.00;;;17.40;99.90;;;;;;5153346;27;20046;-64
2023/09/19 10:02:41;;;;;;;0.30;0.30;;;17.70;99.90;;;;;;5152127;27;20435;-62
2023/09/19 10:07:53;;;;;;;0.10;0.10;;;17.90;99.90;;;;;;5153121;27;20050;-62
2023/09/19 10:10:53;;;;;;;1.65;1.17;;;18.10;99.90;;;;;;5152679;27;20044;-62
2023/09/19 10:13:23;;;;;;;0.28;0.25;;;18.30;99.90;;;;;;5152987;27;20394;-62
2023/09/19 10:15:50;;;;;;;0.38;0.35;;;18.40;99.90;;;;;;5139076;27;20046;-64
2023/09/19 10:18:20;;;;;;;0.38;0.30;;;18.30;99.90;;;;;;5153103;27;20474;-62
2023/09/19 10:20:49;;;;;;;0.47;0.47;;;18.10;99.90;;;;;;5153187;27;20095;-62
2023/09/19 10:23:22;;;;;;;0.70;0.30;;;18.10;99.90;;;;;;5152182;27;20554;-62
2023/09/19 10:25:48;;;;;;;0.20;0.20;;;18.20;99.90;;;;;;5150521;27;20077;-62
2023/09/19 10:28:16;;;;;;;0.40;0.40;;;17.80;99.90;;;;;;5152191;27;20043;-64
2023/09/19 10:30:46;;;;;;;0.80;0.80;;;18.00;99.90;;;;;;5152523;27;20563;-63
2023/09/19 10:33:14;;;;;;;0.38;0.38;;;17.60;99.90;;;;;;5151800;27;20043;-62
2023/09/19 10:35:43;;;;;;;0.32;0.32;;;17.90;99.90;;;;;;5152289;27;20119;-63
2023/09/19 10:38:14;;;;;;;0.43;0.43;;;18.00;99.90;;;;;;5152519;27;20133;-63
2023/09/19 10:40:43;;;;;;;1.25;1.15;;;18.20;99.90;;;;;;5134461;27;20056;-63
2023/09/19 10:43:17;;;;;;;0.10;0.10;;;17.80;99.90;;;;;;5152245;27;20092;-64
2023/09/19 10:45:44;;;;;;;6.45;0.95;;;18.20;99.90;;;;;;5152487;27;20051;-63
2023/09/19 10:48:12;;;;;;;0.57;0.50;;;18.10;99.90;;;;;;5152415;27;20066;-62
2023/09/19 10:50:46;;;;;;;3.28;1.92;;;17.90;99.90;;;;;;5152638;27;20050;-64
2023/09/19 10:53:13;;;;;;;0.80;0.22;;;18.10;99.90;;;;;;5152477;27;20074;-62
2023/09/19 10:55:39;;;;;;;0.22;0.22;;;17.90;99.90;;;;;;5152401;27;20051;-63
2023/09/19 10:58:14;;;;;;;0.85;0.75;;;18.40;99.90;;;;;;5151276;27;20038;-63
2023/09/19 11:00:53;;;;;;;1.20;0.57;;;18.30;99.90;;;;;;5151140;27;20055;-63
2023/09/19 11:03:21;;;;;;;0.25;0.25;;;18.20;99.90;;;;;;5155220;27;20046;-62
2023/09/19 11:06:16;;;;;;;0.15;0.15;;;18.40;99.90;;;;;;5155092;27;20069;-61
2023/09/19 11:08:57;;;;;;;0.30;0.30;;;18.10;99.90;;;;;;5155990;27;20050;-62
2023/09/19 11:11:38;;;;;;;5.53;0.30;;;17.90;99.90;;;;;;5137835;27;20127;-64
2023/09/19 11:14:25;;;;;;;0.30;0.28;;;17.50;99.90;;;;;;5135119;27;20521;-63
2023/09/19 11:17:20;;;;;;;0.20;0.20;;;17.40;99.90;;;;;;5135346;27;20082;-63
2023/09/19 11:22:54;;;;;;;1.63;0.98;;;17.20;99.90;;;;;;5135235;27;20086;-64
2023/09/19 11:25:49;;;;;;;1.73;0.65;;;17.70;99.90;;;;;;5135223;27;20050;-64
2023/09/19 11:28:30;;;;;;;1.25;0.73;;;17.60;99.90;;;;;;5133125;27;20090;-63
2023/09/19 11:30:58;;;;;;;0.45;0.45;;;17.80;99.90;;;;;;5135579;27;20090;-63
2023/09/19 11:33:28;;;;;;;0.20;0.20;;;18.00;99.90;;;;;;5135346;27;20057;-64
2023/09/19 11:36:14;;;;;;;2.15;1.95;;;17.40;99.90;;;;;;5135047;27;20130;-65
2023/09/19 11:38:47;;;;;;;0.32;0.32;;;17.20;99.90;;;;;;5135274;27;20047;-63
2023/09/19 11:44:16;;;;;;;0.28;0.28;;;17.30;99.90;;;;;;5134735;27;20487;-62
2023/09/19 11:46:58;;;;;;;1.35;0.90;;;17.30;99.90;;;;;;5134869;27;20049;-63
2023/09/19 11:49:32;;;;;;;0.93;0.93;;;17.60;99.90;;;;;;5134946;27;20047;-64
2023/09/19 11:52:05;;;;;;;0.68;0.68;;;17.90;99.90;;;;;;5134744;27;20103;-62
2023/09/19 11:54:32;;;;;;;2.58;2.38;;;17.70;99.90;;;;;;5134731;27;20039;-63
2023/09/19 11:56:59;;;;;;;3.30;0.95;;;17.80;99.90;;;;;;5134577;27;20043;-63
2023/09/19 11:59:30;;;;;;;0.10;0.10;;;17.60;99.90;;;;;;5134733;27;20055;-64
2023/09/19 12:02:05;;;;;;;0.10;0.10;;;17.10;99.90;;;;;;5134571;27;20049;-63
2023/09/19 12:04:38;;;;;;;0.20;0.20;;;17.10;99.90;;;;;;5134399;27;20053;-63
2023/09/19 12:07:16;;;;;;;0.32;0.32;;;17.10;99.90;;;;;;5133635;27;20437;-63
2023/09/19 12:09:50;;;;;;;0.30;0.30;;;16.60;99.90;;;;;;5134439;27;20047;-64
2023/09/19 12:12:28;;;;;;;0.40;0.40;;;16.60;99.90;;;;;;5133638;27;20513;-63
2023/09/19 12:14:58;;;;;;;0.10;0.10;;;16.70;99.90;;;;;;5134628;27;20043;-62
2023/09/19 12:17:44;;;;;;;0.05;0.05;;;16.50;99.90;;;;;;5134738;27;20051;-62
2023/09/19 12:20:13;;;;;;;2.40;0.45;;;16.20;99.90;;;;;;5133574;27;20115;-65
2023/09/19 12:22:40;;;;;;;0.20;0.20;;;16.10;99.90;;;;;;5133909;27;20375;-62
2023/09/19 12:25:07;;;;;;;0.32;0.32;;;16.20;99.90;;;;;;5134321;27;20047;-63
2023/09/19 12:27:46;;;;;;;0.50;0.50;;;16.20;99.90;;;;;;5134018;27;20499;-64
2023/09/19 12:30:18;;;;;;;0.32;0.32;;;16.10;99.90;;;;;;5134232;27;20058;-62
2023/09/19 12:32:44;;;;;;;0.35;0.20;;;16.30;99.90;;;;;;5133948;27;20047;-62
2023/09/19 12:35:17;;;;;;;0.10;0.10;;;16.70;99.90;;;;;;5133577;27;20487;-64
2023/09/19 12:37:53;;;;;;;0.70;0.70;;;16.80;99.90;;;;;;5134021;27;20051;-62
2023/09/19 12:40:28;;;;;;;0.10;0.10;;;17.00;99.90;;;;;;5134300;27;20092;-64
2023/09/19 12:43:02;;;;;;;0.30;0.30;;;17.00;99.90;;;;;;5133655;27;20089;-64
2023/09/19 12:45:30;;;;;;;0.13;0.13;;;16.80;99.90;;;;;;5133781;27;20058;-62
2023/09/19 12:48:22;;;;;;;0.30;0.30;;;17.40;99.90;;;;;;5115333;27;20139;-62
2023/09/19 12:51:07;;;;;;;0.28;0.28;;;17.30;99.90;;;;;;5133835;27;20050;-63
2023/09/19 12:53:37;;;;;;;6.00;0.52;;;17.70;99.90;;;;;;5133449;27;20058;-64
2023/09/19 12:56:08;;;;;;;0.20;0.20;;;17.10;99.90;;;;;;5133731;27;20368;-63
2023/09/19 12:58:35;;;;;;;0.10;0.10;;;17.00;99.90;;;;;;5133104;27;20537;-62
2023/09/19 13:01:05;;;;;;;1.17;0.30;;;17.30;99.90;;;;;;5133502;27;20050;-65
2023/09/19 13:03:34;;;;;;;0.30;0.30;;;17.40;99.90;;;;;;5133383;27;20046;-64
2023/09/19 13:06:03;;;;;;;0.20;0.20;;;17.20;99.90;;;;;;5114574;27;20133;-63
2023/09/19 13:08:38;;;;;;;1.45;0.95;;;17.00;99.90;;;;;;5133332;27;20135;-63
2023/09/19 13:11:17;;;;;;;2.63;0.35;;;16.60;99.90;;;;;;5133152;27;20046;-61
2023/09/19 13:14:13;;;;;;;0.13;0.13;;;16.60;99.90;;;;;;5133115;27;20093;-63
2023/09/19 13:17:06;;;;;;;0.40;0.40;;;16.60;99.90;;;;;;5133453;27;20039;-63